createdAt,value
2023-03-21T00:01:06.467Z,96684.47
2023-03-21T00:04:04.078Z,96686.09
2023-03-21T00:07:00.979Z,96683.09
2023-03-21T00:10:08.683Z,96681.03
2023-03-21T00:13:13.364Z,96682.66
2023-03-21T00:16:19.075Z,96674.69
2023-03-21T00:19:20.875Z,96679.44
2023-03-21T00:22:17.747Z,96668.75
2023-03-21T00:25:14.630Z,96674.44
2023-03-21T00:28:11.535Z,96671.25
2023-03-21T00:31:09.692Z,96676.00
2023-03-21T00:34:06.642Z,96666.66
2023-03-21T00:37:03.832Z,96661.34
2023-03-21T00:40:01.367Z,96677.81
2023-03-21T00:42:58.446Z,96664.00
2023-03-21T00:45:56.224Z,96672.81
2023-03-21T00:48:54.108Z,96654.72
2023-03-21T00:51:51.394Z,96653.94
2023-03-21T00:54:48.599Z,96644.63
2023-03-21T00:57:52.834Z,96646.22
2023-03-21T01:00:53.057Z,96645.38
2023-03-21T01:03:51.150Z,96646.22
2023-03-21T01:06:48.797Z,96651.50
2023-03-21T01:09:45.635Z,96643.56
2023-03-21T01:12:42.483Z,96645.19
2023-03-21T01:15:51.562Z,96639.59
2023-03-21T01:18:48.674Z,96636.47
2023-03-21T01:21:45.522Z,96641.53
2023-03-21T01:24:52.370Z,96639.13
2023-03-21T01:27:51.448Z,96640.69
2023-03-21T01:30:51.872Z,96631.66
2023-03-21T01:33:48.971Z,96634.84
2023-03-21T01:36:46.126Z,96626.88
2023-03-21T01:39:43.094Z,96629.00
2023-03-21T01:42:40.282Z,96620.19
2023-03-21T01:46:23.928Z,96625.28
2023-03-21T01:49:36.009Z,96616.31
2023-03-21T01:52:39.006Z,96615.50
2023-03-21T01:55:37.526Z,96614.97
2023-03-21T01:58:35.787Z,96618.97
2023-03-21T02:01:34.808Z,96612.56
2023-03-21T02:04:31.658Z,96607.03
2023-03-21T02:07:35.839Z,96609.41
2023-03-21T02:10:33.260Z,96607.25
2023-03-21T02:13:30.829Z,96604.63
2023-03-21T02:16:48.458Z,96606.78
2023-03-21T02:20:00.698Z,96595.56
2023-03-21T02:23:28.187Z,96592.88
2023-03-21T02:26:52.445Z,96597.69
2023-03-21T02:30:26.578Z,96601.94
2023-03-21T02:34:07.181Z,96596.16
2023-03-21T02:37:37.643Z,96597.72
2023-03-21T02:41:03.401Z,96587.91
2023-03-21T02:44:31.126Z,96591.09
2023-03-21T02:47:47.565Z,96589.75
2023-03-21T02:50:52.606Z,96587.88
2023-03-21T02:54:38.367Z,96599.28
2023-03-21T02:57:42.570Z,96586.28
2023-03-21T03:00:42.871Z,96586.31
2023-03-21T03:03:39.758Z,96577.53
2023-03-21T03:07:17.826Z,96579.91
2023-03-21T03:10:48.109Z,96571.69
2023-03-21T03:18:01.019Z,96567.97
2023-03-21T03:21:44.086Z,96558.66
2023-03-21T03:24:54.581Z,96561.88
2023-03-21T03:27:52.933Z,96560.81
2023-03-21T03:31:07.603Z,96567.22
2023-03-21T03:34:11.681Z,96570.34
2023-03-21T03:37:16.794Z,96564.75
2023-03-21T03:40:37.522Z,96566.63
2023-03-21T03:43:39.523Z,96566.63
2023-03-21T03:46:47.448Z,96569.28
2023-03-21T03:50:00.667Z,96569.03
2023-03-21T03:53:22.007Z,96564.78
2023-03-21T03:56:19.933Z,96563.72
2023-03-21T03:59:19.429Z,96571.69
2023-03-21T04:02:17.353Z,96560.03
2023-03-21T04:05:14.679Z,96557.69
2023-03-21T04:08:11.513Z,96555.28
2023-03-21T04:11:08.675Z,96553.16
2023-03-21T04:14:05.599Z,96555.78
2023-03-21T04:17:02.438Z,96562.22
2023-03-21T04:20:10.781Z,96575.25
2023-03-21T04:23:09.819Z,96583.19
2023-03-21T04:26:07.379Z,96570.19
2023-03-21T04:29:05.281Z,96567.75
2023-03-21T04:32:02.191Z,96571.47
2023-03-21T04:34:59.881Z,96577.06
2023-03-21T04:37:56.864Z,96572.06
2023-03-21T04:40:53.661Z,96580.53
2023-03-21T04:43:51.872Z,96570.44
2023-03-21T04:46:50.321Z,96586.13
2023-03-21T04:49:50.110Z,96578.16
2023-03-21T04:52:46.941Z,96576.28
2023-03-21T04:55:43.750Z,96576.06
2023-03-21T04:58:41.276Z,96576.56
2023-03-21T05:01:38.093Z,96573.09
2023-03-21T05:04:34.925Z,96572.03
2023-03-21T05:07:32.781Z,96574.72
2023-03-21T05:10:29.610Z,96570.72
2023-03-21T05:13:26.441Z,96574.47
2023-03-21T05:16:26.830Z,96567.53
2023-03-21T05:19:34.828Z,96571.22
2023-03-21T05:22:40.336Z,96575.75
2023-03-21T05:25:40.343Z,96578.13
2023-03-21T05:28:37.349Z,96570.19
2023-03-21T05:31:34.451Z,96576.06
2023-03-21T05:34:32.161Z,96574.16
2023-03-21T05:37:29.202Z,96575.75
2023-03-21T05:40:26.006Z,96575.75
2023-03-21T05:43:22.831Z,96573.88
2023-03-21T05:46:19.709Z,96577.06
2023-03-21T05:49:16.520Z,96579.44
2023-03-21T05:52:13.451Z,96581.03
2023-03-21T05:55:10.322Z,96579.72
2023-03-21T05:58:07.184Z,96578.34
2023-03-21T06:01:04.215Z,96580.25
2023-03-21T06:04:01.189Z,96582.06
2023-03-21T06:06:58.227Z,96578.84
2023-03-21T06:09:55.165Z,96583.34
2023-03-21T06:12:51.978Z,96589.19
2023-03-21T06:15:48.837Z,96588.34
2023-03-21T06:18:45.721Z,96585.19
2023-03-21T06:21:42.961Z,96584.38
2023-03-21T06:24:39.794Z,96579.06
2023-03-21T06:27:37.480Z,96582.16
2023-03-21T06:30:34.297Z,96584.59
2023-03-21T06:33:31.435Z,96588.78
2023-03-21T06:36:28.259Z,96587.97
2023-03-21T06:39:26.279Z,96584.22
2023-03-21T06:42:23.130Z,96578.31
2023-03-21T06:45:20.225Z,96580.06
2023-03-21T06:48:17.087Z,96581.72
2023-03-21T06:51:16.016Z,96581.16
2023-03-21T06:54:14.539Z,96572.31
2023-03-21T06:57:11.536Z,96575.25
2023-03-21T07:00:09.519Z,96575.75
2023-03-21T07:03:06.990Z,96574.38
2023-03-21T07:06:11.844Z,96582.38
2023-03-21T07:09:08.784Z,96579.03
2023-03-21T07:12:05.769Z,96575.78
2023-03-21T07:15:04.426Z,96573.91
2023-03-21T07:18:01.256Z,96571.81
2023-03-21T07:20:58.655Z,96567.47
2023-03-21T07:23:55.480Z,96574.50
2023-03-21T07:26:52.293Z,96573.31
2023-03-21T07:29:50.444Z,96565.84
2023-03-21T07:32:47.685Z,96573.78
2023-03-21T07:35:44.542Z,96577.00
2023-03-21T07:38:43.384Z,96567.06
2023-03-21T07:41:40.338Z,96577.03
2023-03-21T07:44:37.170Z,96565.00
2023-03-21T07:47:34.510Z,96570.97
2023-03-21T07:50:31.555Z,96570.00
2023-03-21T07:53:28.438Z,96562.06
2023-03-21T07:56:25.328Z,96563.75
2023-03-21T07:59:22.387Z,96564.44
2023-03-21T08:02:19.489Z,96560.22
2023-03-21T08:05:19.220Z,96565.25
2023-03-21T08:08:16.089Z,96573.22
2023-03-21T08:11:13.449Z,96566.91
2023-03-21T08:14:10.360Z,96567.69
2023-03-21T08:17:09.459Z,96570.13
2023-03-21T08:20:09.947Z,96573.44
2023-03-21T08:23:06.842Z,96569.03
2023-03-21T08:26:03.769Z,96570.41
2023-03-21T08:29:00.901Z,96562.38
2023-03-21T08:31:58.205Z,96544.41
2023-03-21T08:34:58.747Z,96552.94
2023-03-21T08:37:55.657Z,96558.34
2023-03-21T08:40:52.489Z,96567.94
2023-03-21T08:43:49.443Z,96575.50
2023-03-21T08:46:46.315Z,96566.63
2023-03-21T08:49:45.698Z,96559.59
2023-03-21T08:52:42.912Z,96566.88
2023-03-21T08:55:40.059Z,96564.09
2023-03-21T08:58:37.786Z,96564.25
2023-03-21T09:01:34.734Z,96555.28
2023-03-21T09:04:31.902Z,96551.22
2023-03-21T09:07:28.753Z,96538.81
2023-03-21T09:10:25.751Z,96544.22
2023-03-21T09:13:23.512Z,96541.34
2023-03-21T09:16:20.416Z,96549.97
2023-03-21T09:19:18.008Z,96546.63
2023-03-21T09:22:17.336Z,96540.41
2023-03-21T09:25:16.167Z,96537.91
2023-03-21T09:28:14.087Z,96540.88
2023-03-21T09:31:12.291Z,96532.66
2023-03-21T09:34:09.847Z,96523.59
2023-03-21T09:37:13.310Z,96523.66
2023-03-21T09:40:53.844Z,96527.63
2023-03-21T09:44:30.446Z,96534.06
2023-03-21T09:47:34.850Z,96523.22
2023-03-21T09:50:36.918Z,96521.47
2023-03-21T09:53:40.097Z,96518.06
2023-03-21T09:56:41.021Z,96510.16
2023-03-21T09:59:42.941Z,96514.94
2023-03-21T10:02:47.214Z,96516.47
2023-03-21T10:05:45.907Z,96505.97
2023-03-21T10:08:47.076Z,96499.50
2023-03-21T10:11:58.729Z,96503.97
2023-03-21T10:14:58.738Z,96495.59
2023-03-21T10:18:07.973Z,96482.47
2023-03-21T10:21:05.924Z,96480.50
2023-03-21T10:24:02.865Z,96469.91
2023-03-21T10:27:01.675Z,96472.72
2023-03-21T10:30:00.923Z,96470.44
2023-03-21T10:33:04.982Z,96485.00
2023-03-21T10:36:08.237Z,96478.56
2023-03-21T10:39:37.772Z,96468.09
2023-03-21T10:42:36.645Z,96486.25
2023-03-21T10:45:35.656Z,96471.69
2023-03-21T10:48:38.339Z,96472.06
2023-03-21T10:51:39.062Z,96467.34
2023-03-21T10:54:36.143Z,96466.22
2023-03-21T10:57:33.377Z,96471.06
2023-03-21T11:00:37.694Z,96464.88
2023-03-21T11:03:43.659Z,96468.03
2023-03-21T11:06:50.699Z,96472.66
2023-03-21T11:09:54.962Z,96462.59
2023-03-21T11:12:57.805Z,96465.91
2023-03-21T11:16:05.707Z,96460.13
2023-03-21T11:19:32.400Z,96470.03
2023-03-21T11:22:39.280Z,96470.03
2023-03-21T11:25:41.504Z,96468.81
2023-03-21T11:28:44.835Z,96459.84
2023-03-21T11:31:42.043Z,96461.56
2023-03-21T11:34:53.262Z,96459.53
2023-03-21T11:37:56.438Z,96458.44
2023-03-21T11:40:59.276Z,96450.44
2023-03-21T11:43:57.221Z,96448.69
2023-03-21T11:46:55.114Z,96444.09
2023-03-21T11:49:58.432Z,96439.03
2023-03-21T11:53:42.651Z,96430.19
2023-03-21T11:56:51.553Z,96426.47
2023-03-21T12:00:15.853Z,96425.56
2023-03-21T12:03:48.778Z,96422.06
2023-03-21T12:07:00.695Z,96410.22
2023-03-21T12:10:34.131Z,96414.16
2023-03-21T12:14:00.139Z,96399.22
2023-03-21T12:17:42.476Z,96395.00
2023-03-21T12:21:04.284Z,96387.00
2023-03-21T12:24:23.317Z,96388.78
2023-03-21T12:27:35.618Z,96381.81
2023-03-21T12:30:49.742Z,96379.03
2023-03-21T12:34:08.181Z,96373.34
2023-03-21T12:37:39.170Z,96372.28
2023-03-21T12:41:04.137Z,96370.19
2023-03-21T12:44:17.655Z,96367.94
2023-03-21T12:47:22.494Z,96367.53
2023-03-21T12:50:37.339Z,96363.38
2023-03-21T12:53:49.788Z,96358.88
2023-03-21T12:57:12.846Z,96361.38
2023-03-21T13:00:26.362Z,96354.06
2023-03-21T13:03:46.672Z,96351.25
2023-03-21T13:06:46.559Z,96350.69
2023-03-21T13:09:43.852Z,96346.69
2023-03-21T13:13:18.230Z,96345.81
2023-03-21T13:16:46.271Z,96335.56
2023-03-21T13:19:52.649Z,96326.78
2023-03-21T13:22:49.630Z,96329.69
2023-03-21T13:25:50.346Z,96326.06
2023-03-21T13:28:48.252Z,96331.16
2023-03-21T13:31:52.078Z,96323.72
2023-03-21T13:35:04.980Z,96324.03
2023-03-21T13:38:12.756Z,96325.31
2023-03-21T13:41:17.108Z,96321.84
2023-03-21T13:44:33.118Z,96319.56
2023-03-21T13:47:53.081Z,96317.53
2023-03-21T13:51:04.741Z,96308.69
2023-03-21T13:54:07.478Z,96314.31
2023-03-21T13:57:30.418Z,96313.91
2023-03-21T14:00:31.135Z,96304.06
2023-03-21T14:03:30.784Z,96308.63
2023-03-21T14:07:01.839Z,96298.00
2023-03-21T14:10:06.591Z,96303.97
2023-03-21T14:13:06.283Z,96305.53
2023-03-21T14:16:14.385Z,96297.06
2023-03-21T14:19:12.302Z,96295.28
2023-03-21T14:22:13.619Z,96287.63
2023-03-21T14:25:17.518Z,96290.75
2023-03-21T14:28:22.891Z,96285.31
2023-03-21T14:31:21.090Z,96274.72
2023-03-21T14:34:18.884Z,96273.94
2023-03-21T14:37:38.887Z,96281.19
2023-03-21T14:40:36.205Z,96283.16
2023-03-21T14:43:36.160Z,96278.34
2023-03-21T14:46:33.872Z,96281.38
2023-03-21T14:49:34.639Z,96280.00
2023-03-21T14:52:33.551Z,96275.81
2023-03-21T14:55:30.533Z,96272.56
2023-03-21T14:58:29.062Z,96269.38
2023-03-21T15:01:32.201Z,96272.47
2023-03-21T15:04:31.819Z,96271.22
2023-03-21T15:07:34.725Z,96265.28
2023-03-21T15:10:32.305Z,96262.38
2023-03-21T15:13:45.436Z,96257.56
2023-03-21T15:16:42.518Z,96256.22
2023-03-21T15:19:43.709Z,96264.28
2023-03-21T15:22:49.005Z,96260.19
2023-03-21T15:25:46.109Z,96255.00
2023-03-21T15:28:51.445Z,96251.91
2023-03-21T15:31:48.866Z,96250.16
2023-03-21T15:34:46.583Z,96249.13
2023-03-21T15:37:51.773Z,96249.13
2023-03-21T15:40:48.681Z,96257.03
2023-03-21T15:44:13.512Z,96255.94
2023-03-21T15:47:14.197Z,96261.19
2023-03-21T15:50:26.828Z,96270.88
2023-03-21T15:53:24.335Z,96272.16
2023-03-21T15:56:22.981Z,96274.06
2023-03-21T15:59:19.944Z,96268.13
2023-03-21T16:02:24.157Z,96268.38
2023-03-21T16:05:33.702Z,96274.88
2023-03-21T16:08:36.730Z,96268.28
2023-03-21T16:11:43.967Z,96271.31
2023-03-21T16:14:42.647Z,96268.75
2023-03-21T16:17:41.105Z,96280.94
2023-03-21T16:20:44.993Z,96282.06
2023-03-21T16:23:42.206Z,96276.38
2023-03-21T16:26:46.093Z,96276.56
2023-03-21T16:29:43.000Z,96272.75
2023-03-21T16:32:40.185Z,96284.75
2023-03-21T16:35:37.017Z,96288.06
2023-03-21T16:38:34.008Z,96291.13
2023-03-21T16:41:30.976Z,96299.44
2023-03-21T16:44:28.084Z,96298.25
2023-03-21T16:47:24.991Z,96309.56
2023-03-21T16:50:39.878Z,96316.78
2023-03-21T16:53:36.906Z,96322.19
2023-03-21T16:56:44.808Z,96314.47
2023-03-21T16:59:42.763Z,96325.69
2023-03-21T17:02:39.609Z,96327.16
2023-03-21T17:05:36.436Z,96337.78
2023-03-21T17:08:33.320Z,96337.63
2023-03-21T17:11:35.962Z,96342.22
2023-03-21T17:14:32.777Z,96335.13
2023-03-21T17:17:29.597Z,96336.22
2023-03-21T17:20:35.240Z,96338.91
2023-03-21T17:23:32.092Z,96337.66
2023-03-21T17:26:29.464Z,96340.72
2023-03-21T17:29:26.330Z,96336.16
2023-03-21T17:32:23.153Z,96327.38
2023-03-21T17:35:21.994Z,96335.28
2023-03-21T17:38:18.933Z,96338.53
2023-03-21T17:41:18.681Z,96336.72
2023-03-21T17:44:15.920Z,96335.59
2023-03-21T17:47:13.096Z,96334.69
2023-03-21T17:50:19.498Z,96334.97
2023-03-21T17:53:16.334Z,96334.38
2023-03-21T17:56:25.813Z,96325.00
2023-03-21T17:59:23.565Z,96332.47
2023-03-21T18:02:20.660Z,96336.91
2023-03-21T18:05:18.259Z,96337.34
2023-03-21T18:08:15.517Z,96333.88
2023-03-21T18:11:14.034Z,96330.03
2023-03-21T18:14:17.684Z,96335.88
2023-03-21T18:17:19.348Z,96329.81
2023-03-21T18:20:19.899Z,96323.69
2023-03-21T18:23:18.673Z,96327.25
2023-03-21T18:26:22.822Z,96327.47
2023-03-21T18:32:38.001Z,96337.41
2023-03-21T18:35:35.097Z,96337.72
2023-03-21T18:38:31.965Z,96338.31
2023-03-21T18:41:29.356Z,96339.69
2023-03-21T18:44:26.622Z,96338.31
2023-03-21T18:47:23.612Z,96339.38
2023-03-21T18:50:21.049Z,96344.63
2023-03-21T18:53:17.886Z,96336.13
2023-03-21T18:56:57.671Z,96334.31
2023-03-21T18:59:34.621Z,96336.63
2023-03-21T19:02:31.911Z,96349.56
2023-03-21T19:05:29.184Z,96351.34
2023-03-21T19:08:26.030Z,96357.41
2023-03-21T19:11:23.688Z,96354.13
2023-03-21T19:14:20.600Z,96362.81
2023-03-21T19:18:15.746Z,96362.53
2023-03-21T19:20:34.901Z,96374.31
2023-03-21T19:23:56.366Z,96365.13
2023-03-21T19:26:49.301Z,96353.84
2023-03-21T19:29:59.788Z,96354.47
2023-03-21T19:33:03.128Z,96362.16
2023-03-21T19:36:15.390Z,96351.31
2023-03-21T19:39:19.355Z,96337.00
2023-03-21T19:42:17.774Z,96338.63
2023-03-21T19:45:14.657Z,96342.03
2023-03-21T19:48:11.827Z,96337.78
2023-03-21T19:51:27.754Z,96340.16
2023-03-21T19:54:25.752Z,96341.34
2023-03-21T19:57:24.940Z,96344.44
2023-03-21T20:00:22.302Z,96343.88
2023-03-21T20:03:22.088Z,96339.66
2023-03-21T20:06:19.589Z,96340.09
2023-03-21T20:09:50.829Z,96335.41
2023-03-21T20:12:34.130Z,96337.63
2023-03-21T20:15:31.142Z,96333.25
2023-03-21T20:18:28.028Z,96325.03
2023-03-21T20:21:27.250Z,96341.59
2023-03-21T20:24:24.098Z,96337.84
2023-03-21T20:27:25.040Z,96328.50
2023-03-21T20:30:22.069Z,96348.31
2023-03-21T20:33:19.530Z,96344.75
2023-03-21T20:36:38.033Z,96337.41
2023-03-21T20:39:35.289Z,96340.56
2023-03-21T20:42:35.360Z,96340.22
2023-03-21T20:45:33.279Z,96344.75
2023-03-21T20:48:30.736Z,96341.00
2023-03-21T20:54:45.672Z,96334.47
2023-03-21T20:57:42.557Z,96334.25
2023-03-21T21:00:39.974Z,96331.09
2023-03-21T21:03:41.135Z,96332.16
2023-03-21T21:06:38.882Z,96325.44
2023-03-21T21:09:35.719Z,96334.84
2023-03-21T21:12:32.531Z,96324.50
2023-03-21T21:15:29.373Z,96322.38
2023-03-21T21:18:26.332Z,96322.38
2023-03-21T21:21:23.161Z,96330.66
2023-03-21T21:24:20.181Z,96330.03
2023-03-21T21:27:17.048Z,96330.22
2023-03-21T21:30:14.226Z,96331.88
2023-03-21T21:33:11.142Z,96336.59
2023-03-21T21:36:10.142Z,96332.03
2023-03-21T21:39:07.531Z,96327.09
2023-03-21T21:42:05.566Z,96318.22
2023-03-21T21:45:02.450Z,96324.72
2023-03-21T21:47:59.315Z,96319.78
2023-03-21T21:50:56.183Z,96320.84
2023-03-21T21:53:55.901Z,96314.78
2023-03-21T21:56:54.079Z,96317.00
2023-03-21T21:59:53.891Z,96312.16
2023-03-21T22:02:52.122Z,96318.59
2023-03-21T22:05:50.466Z,96315.94
2023-03-21T22:08:47.304Z,96306.78
2023-03-21T22:11:44.111Z,96320.81
2023-03-21T22:14:40.970Z,96321.56
2023-03-21T22:17:39.954Z,96310.09
2023-03-21T22:20:37.359Z,96322.91
2023-03-21T22:23:34.523Z,96334.88
2023-03-21T22:26:31.456Z,96323.38
2023-03-21T22:29:28.884Z,96318.72
2023-03-21T22:32:25.702Z,96330.19
2023-03-21T22:35:22.704Z,96325.66
2023-03-21T22:38:24.188Z,96323.06
2023-03-21T22:41:21.224Z,96330.50
2023-03-21T22:44:18.150Z,96339.03
2023-03-21T22:47:15.438Z,96346.50
2023-03-21T22:50:12.322Z,96351.47
2023-03-21T22:53:09.225Z,96356.25
2023-03-21T22:56:06.687Z,96347.44
2023-03-21T22:59:03.583Z,96338.44
2023-03-21T23:02:00.559Z,96337.31
2023-03-21T23:04:57.379Z,96337.72
2023-03-21T23:07:54.191Z,96332.66
2023-03-21T23:10:51.612Z,96331.88
2023-03-21T23:13:53.625Z,96320.84
2023-03-21T23:17:00.079Z,96318.22
2023-03-21T23:19:57.004Z,96310.06
2023-03-21T23:22:54.602Z,96303.00
2023-03-21T23:25:52.168Z,96301.31
2023-03-21T23:28:49.843Z,96316.69
2023-03-21T23:31:46.921Z,96316.28
2023-03-21T23:34:44.179Z,96311.53
2023-03-21T23:37:52.191Z,96315.06
2023-03-21T23:40:49.284Z,96313.09
2023-03-21T23:43:47.002Z,96305.16
2023-03-21T23:46:43.809Z,96313.09
2023-03-21T23:49:40.832Z,96308.88
2023-03-21T23:52:38.244Z,96307.31
2023-03-21T23:55:37.805Z,96298.31
2023-03-21T23:58:34.617Z,96299.38
